CheckWX is a tool to help pilots better visualize weather data.  It is not intended as a substitute for an official pre-flight weather briefing.

01:15:42 UTC

KDKB METAR
De Kalb Taylor Municipal Airport
De Kalb, Illinois, USA
Current

21 mins ago

KDKB 200055Z AUTO 36005KT 10SM BKN034 BKN040 OVC090 26/23 A3000 RMK AO2 T02560227
Observed
Aug-20 @ 00:55 UTC
Wind
  • 360° at 5 KTS
Visibility
10 SM
Flight Rules
VFR
Cloud Levels
  • Broken at 3,400' AGL
  • Broken at 4,000' AGL
  • Overcast at 9,000' AGL
Temperature
26°C / 79°F
Dewpoint
23°C / 73°F
Humidity
84%
Altimeter
30" Hg
Pressure
1015.92 hPa
Previous

41 mins ago

KDKB 200035Z AUTO 00000KT 10SM SCT034 SCT045 BKN090 26/23 A3001 RMK AO2 T02620230
Observed
Aug-20 @ 00:35 UTC
Visibility
10 SM
Flight Rules
VFR
Cloud Levels
  • Scattered at 3,400' AGL
  • Scattered at 4,500' AGL
  • Broken at 9,000' AGL
Temperature
26°C / 79°F
Dewpoint
23°C / 73°F
Humidity
84%
Altimeter
30.01" Hg
Pressure
1016.22 hPa
Previous

1 hour ago

KDKB 192355Z AUTO 00000KT 10SM SCT032 BKN042 OVC050 28/23 A3000 RMK AO2 T02750226 10298 20275
Observed
Aug-19 @ 23:55 UTC
Visibility
10 SM
Flight Rules
VFR
Cloud Levels
  • Scattered at 3,200' AGL
  • Broken at 4,200' AGL
  • Overcast at 5,000' AGL
Temperature
28°C / 82°F
Dewpoint
23°C / 73°F
Heat Index
31°C / 87°F
Humidity
74%
Altimeter
30" Hg
Pressure
1015.92 hPa